createdAt,value
2023-01-29T00:03:54.668Z,-1.75
2023-01-29T00:09:03.339Z,-1.75
2023-01-29T00:14:10.930Z,-1.75
2023-01-29T00:19:19.891Z,-1.75
2023-01-29T00:24:28.234Z,-1.75
2023-01-29T00:29:36.656Z,-1.75
2023-01-29T00:34:43.972Z,-1.74
2023-01-29T00:39:51.497Z,-1.74
2023-01-29T00:45:00.584Z,-1.73
2023-01-29T00:50:11.581Z,-1.73
2023-01-29T01:00:49.747Z,-1.72
2023-01-29T01:06:09.082Z,-1.72
2023-01-29T01:11:17.708Z,-1.71
2023-01-29T01:16:27.588Z,-1.70
2023-01-29T01:21:35.986Z,-1.71
2023-01-29T01:26:44.594Z,-1.72
2023-01-29T01:31:55.115Z,-1.71
2023-01-29T01:37:03.617Z,-1.70
2023-01-29T01:42:15.261Z,-1.68
2023-01-29T01:47:27.750Z,-1.67
2023-01-29T01:52:44.612Z,-1.65
2023-01-29T01:57:57.775Z,-1.62
2023-01-29T02:03:25.285Z,-1.61
2023-01-29T02:09:03.238Z,-1.61
2023-01-29T02:14:12.644Z,-1.61
2023-01-29T02:19:35.412Z,-1.61
2023-01-29T02:25:10.326Z,-1.60
2023-01-29T02:30:24.529Z,-1.60
2023-01-29T02:35:43.741Z,-1.60
2023-01-29T02:40:59.239Z,-1.59
2023-01-29T02:46:17.046Z,-1.59
2023-01-29T02:51:32.455Z,-1.58
2023-01-29T02:56:51.487Z,-1.57
2023-01-29T03:02:04.177Z,-1.55
2023-01-29T03:07:39.884Z,-1.54
2023-01-29T03:12:52.521Z,-1.54
2023-01-29T03:18:07.905Z,-1.53
2023-01-29T03:23:24.847Z,-1.52
2023-01-29T03:28:53.479Z,-1.50
2023-01-29T03:34:08.849Z,-1.49
2023-01-29T03:39:17.921Z,-1.50
2023-01-29T03:44:38.001Z,-1.50
2023-01-29T03:49:59.538Z,-1.51
2023-01-29T03:55:16.575Z,-1.49
2023-01-29T04:00:30.627Z,-1.48
2023-01-29T04:05:46.783Z,-1.46
2023-01-29T04:11:05.235Z,-1.45
2023-01-29T04:16:18.727Z,-1.45
2023-01-29T04:21:52.624Z,-1.42
2023-01-29T04:27:16.311Z,-1.42
2023-01-29T04:32:34.252Z,-1.42
2023-01-29T04:37:47.546Z,-1.42
2023-01-29T04:43:05.923Z,-1.42
2023-01-29T04:48:21.788Z,-1.43
2023-01-29T04:53:44.798Z,-1.43
2023-01-29T04:58:58.426Z,-1.45
2023-01-29T05:04:10.636Z,-1.48
2023-01-29T05:09:18.612Z,-1.47
2023-01-29T05:14:30.899Z,-1.43
2023-01-29T05:19:39.972Z,-1.41
2023-01-29T05:24:48.132Z,-1.38
2023-01-29T05:29:57.991Z,-1.34
2023-01-29T05:35:06.714Z,-1.32
2023-01-29T05:40:16.848Z,-1.28
2023-01-29T05:45:24.746Z,-1.25
2023-01-29T05:50:33.945Z,-1.22
2023-01-29T05:55:41.853Z,-1.18
2023-01-29T06:00:50.202Z,-1.15
2023-01-29T06:05:59.837Z,-1.13
2023-01-29T06:11:09.952Z,-1.11
2023-01-29T06:16:21.573Z,-1.09
2023-01-29T06:21:29.319Z,-1.07
2023-01-29T06:26:40.303Z,-1.05
2023-01-29T06:31:47.793Z,-1.03
2023-01-29T06:36:55.016Z,-1.02
2023-01-29T06:42:02.758Z,-1.01
2023-01-29T06:47:11.032Z,-1.03
2023-01-29T06:52:19.303Z,-1.03
2023-01-29T06:57:27.094Z,-1.01
2023-01-29T07:02:35.712Z,-0.99
2023-01-29T07:07:43.992Z,-0.97
2023-01-29T07:12:52.265Z,-0.95
2023-01-29T07:18:13.151Z,-0.93
2023-01-29T07:23:21.712Z,-0.92
2023-01-29T07:28:30.069Z,-0.88
2023-01-29T07:33:38.544Z,-0.84
2023-01-29T07:38:50.876Z,-0.80
2023-01-29T07:43:58.496Z,-0.76
2023-01-29T07:49:07.143Z,-0.70
2023-01-29T07:54:18.591Z,-0.66
2023-01-29T07:59:26.423Z,-0.62
2023-01-29T08:04:33.831Z,-0.58
2023-01-29T08:09:42.111Z,-0.54
2023-01-29T08:14:50.797Z,-0.52
2023-01-29T08:19:59.592Z,-0.48
2023-01-29T08:25:09.359Z,-0.45
2023-01-29T08:30:18.669Z,-0.42
2023-01-29T08:35:27.942Z,-0.40
2023-01-29T08:40:37.703Z,-0.39
2023-01-29T08:45:46.185Z,-0.34
2023-01-29T08:50:53.815Z,-0.32
2023-01-29T08:56:02.108Z,-0.30
2023-01-29T09:01:14.066Z,-0.31
2023-01-29T09:06:22.519Z,-0.30
2023-01-29T09:11:30.849Z,-0.26
2023-01-29T09:16:38.945Z,-0.22
2023-01-29T09:21:46.286Z,-0.16
2023-01-29T09:26:54.071Z,-0.14
2023-01-29T09:32:01.341Z,-0.11
2023-01-29T09:37:09.810Z,-0.09
2023-01-29T09:42:23.814Z,-0.10
2023-01-29T09:47:34.327Z,-0.08
2023-01-29T09:52:47.594Z,-0.05
2023-01-29T09:57:59.135Z,-0.03
2023-01-29T10:03:38.911Z,-0.00
2023-01-29T10:09:21.618Z,0.04
2023-01-29T10:14:42.517Z,0.07
2023-01-29T10:20:16.037Z,0.11
2023-01-29T10:25:26.204Z,0.15
2023-01-29T10:30:39.404Z,0.17
2023-01-29T10:35:54.694Z,0.21
2023-01-29T10:41:17.587Z,0.26
2023-01-29T10:46:37.298Z,0.30
2023-01-29T10:52:03.673Z,0.33
2023-01-29T10:57:21.284Z,0.37
2023-01-29T11:02:28.818Z,0.40
2023-01-29T11:07:36.426Z,0.43
2023-01-29T11:12:45.290Z,0.48
2023-01-29T11:18:14.257Z,0.53
2023-01-29T11:23:33.193Z,0.56
2023-01-29T11:28:43.279Z,0.58
2023-01-29T11:33:54.954Z,0.59
2023-01-29T11:39:18.704Z,0.58
2023-01-29T11:44:32.284Z,0.57
2023-01-29T11:49:43.974Z,0.59
2023-01-29T11:54:56.772Z,0.53
2023-01-29T12:00:08.667Z,0.61
2023-01-29T12:05:23.968Z,0.62
2023-01-29T12:10:38.624Z,0.60
2023-01-29T12:15:47.735Z,0.71
2023-01-29T12:21:00.998Z,0.73
2023-01-29T12:26:14.329Z,0.76
2023-01-29T12:31:39.669Z,0.79
2023-01-29T12:36:54.706Z,0.80
2023-01-29T12:42:07.322Z,0.82
2023-01-29T12:47:21.852Z,0.80
2023-01-29T12:52:43.565Z,0.83
2023-01-29T12:57:59.210Z,0.85
2023-01-29T13:03:17.880Z,0.85
2023-01-29T13:08:30.408Z,0.86
2023-01-29T13:13:54.352Z,0.87
2023-01-29T13:19:04.838Z,0.88
2023-01-29T13:24:18.341Z,0.87
2023-01-29T13:29:30.312Z,0.88
2023-01-29T13:34:48.755Z,0.88
2023-01-29T13:39:57.637Z,0.90
2023-01-29T13:45:08.551Z,0.92
2023-01-29T13:50:31.319Z,0.96
2023-01-29T13:55:41.946Z,0.97
2023-01-29T14:00:58.019Z,0.97
2023-01-29T14:06:09.387Z,0.96
2023-01-29T14:11:38.781Z,0.95
2023-01-29T14:16:48.025Z,0.94
2023-01-29T14:22:04.991Z,0.92
2023-01-29T14:27:22.247Z,0.92
2023-01-29T14:32:31.446Z,0.93
2023-01-29T14:37:42.212Z,0.92
2023-01-29T14:42:59.159Z,0.89
2023-01-29T14:48:38.893Z,0.86
2023-01-29T14:54:01.259Z,0.86
2023-01-29T14:59:22.138Z,0.88
2023-01-29T15:04:36.841Z,0.89
2023-01-29T15:09:49.326Z,0.93
2023-01-29T15:15:07.010Z,0.94
2023-01-29T15:20:45.060Z,0.94
2023-01-29T15:25:56.081Z,0.92
2023-01-29T15:31:06.449Z,0.88
2023-01-29T15:36:23.872Z,0.87
2023-01-29T15:41:31.848Z,0.87
2023-01-29T15:46:42.704Z,0.85
2023-01-29T15:51:50.355Z,0.82
2023-01-29T15:56:59.629Z,0.80
2023-01-29T16:02:23.671Z,0.81
2023-01-29T16:07:33.696Z,0.83
2023-01-29T16:12:41.504Z,0.85
2023-01-29T16:17:50.855Z,0.85
2023-01-29T16:22:58.385Z,0.86
2023-01-29T16:28:11.794Z,0.88
2023-01-29T16:33:21.862Z,0.88
2023-01-29T16:38:32.525Z,0.88
2023-01-29T16:43:53.863Z,0.88
2023-01-29T16:49:02.268Z,0.88
2023-01-29T16:54:18.809Z,0.89
2023-01-29T16:59:34.665Z,0.88
2023-01-29T17:04:44.236Z,0.89
2023-01-29T17:09:54.298Z,0.89
2023-01-29T17:15:03.832Z,0.89
2023-01-29T17:20:17.786Z,0.87
2023-01-29T17:25:25.263Z,0.86
2023-01-29T17:30:37.693Z,0.85
2023-01-29T17:35:47.089Z,0.82
2023-01-29T17:40:59.451Z,0.83
2023-01-29T17:46:07.141Z,0.82
2023-01-29T17:51:17.044Z,0.81
2023-01-29T17:56:29.970Z,0.81
2023-01-29T18:01:37.616Z,0.80
2023-01-29T18:06:46.943Z,0.80
2023-01-29T18:11:55.217Z,0.75
2023-01-29T18:17:03.044Z,0.76
2023-01-29T18:22:10.618Z,0.77
2023-01-29T18:27:18.241Z,0.75
2023-01-29T18:32:25.632Z,0.76
2023-01-29T18:37:33.286Z,0.80
2023-01-29T18:42:41.169Z,0.82
2023-01-29T18:47:49.765Z,0.82
2023-01-29T18:52:58.410Z,0.83
2023-01-29T18:58:28.960Z,0.84
2023-01-29T19:03:34.279Z,0.85
2023-01-29T19:08:43.437Z,0.86
2023-01-29T19:13:51.290Z,0.87
2023-01-29T19:18:59.527Z,0.84
2023-01-29T19:24:10.833Z,0.83
2023-01-29T19:29:19.362Z,0.83
2023-01-29T19:34:27.581Z,0.82
2023-01-29T19:39:35.084Z,0.83
2023-01-29T19:44:42.620Z,0.85
2023-01-29T19:49:50.733Z,0.85
2023-01-29T19:54:58.742Z,0.85
2023-01-29T20:00:08.529Z,0.85
2023-01-29T20:05:18.886Z,0.86
2023-01-29T20:10:28.146Z,0.84
2023-01-29T20:15:36.201Z,0.82
2023-01-29T20:20:45.705Z,0.84
2023-01-29T20:25:54.154Z,0.81
2023-01-29T20:31:02.496Z,0.83
2023-01-29T20:36:13.022Z,0.85
2023-01-29T20:41:21.799Z,0.85
2023-01-29T20:46:30.452Z,0.85
2023-01-29T20:51:38.604Z,0.84
2023-01-29T20:56:47.191Z,0.82
2023-01-29T21:01:55.519Z,0.82
2023-01-29T21:07:03.288Z,0.82
2023-01-29T21:12:11.612Z,0.84
2023-01-29T21:17:19.194Z,0.85
2023-01-29T21:22:26.907Z,0.87
2023-01-29T21:27:34.333Z,0.84
2023-01-29T21:32:41.900Z,0.84
2023-01-29T21:37:49.737Z,0.87
2023-01-29T21:43:16.531Z,0.86
2023-01-29T21:48:25.019Z,0.82
2023-01-29T21:53:32.773Z,0.83
2023-01-29T21:58:40.442Z,0.83
2023-01-29T22:03:48.272Z,0.84
2023-01-29T22:08:56.082Z,0.84
2023-01-29T22:14:03.952Z,0.85
2023-01-29T22:19:11.569Z,0.88
2023-01-29T22:24:19.023Z,0.84
2023-01-29T22:29:26.725Z,0.81
2023-01-29T22:34:34.131Z,0.83
2023-01-29T22:39:42.368Z,0.79
2023-01-29T22:44:50.264Z,0.82
2023-01-29T22:50:01.920Z,0.81
2023-01-29T22:55:12.263Z,0.84
2023-01-29T23:00:21.737Z,0.84
2023-01-29T23:05:29.656Z,0.76
2023-01-29T23:10:37.514Z,0.85
2023-01-29T23:15:45.223Z,0.86
2023-01-29T23:20:57.967Z,0.86
2023-01-29T23:26:25.235Z,0.87
2023-01-29T23:31:33.777Z,0.91
2023-01-29T23:36:41.696Z,0.91
2023-01-29T23:41:49.326Z,0.91
2023-01-29T23:46:57.480Z,0.89
2023-01-29T23:52:06.074Z,0.87
2023-01-29T23:57:14.429Z,0.86
